DTTJ/DJE METAR and TAF weather

Enter ICAO airport designator
Station Type Date Time Source
DTTJ METAR 2018/01/24 07:00 UTC NOAA

DTTJ 240700Z 35012KT 9999 SCT026 14/10 Q1027 NOSIG


Station Type Date Time Source
DTTJ Decoded METAR 2018/01/24 07:00 UTC NOAA

Djerba Mellita, Tunisia (DTTJ) 33-52N 010-46E 4M
Jan 24, 2018 - 02:00 AM EST / 2018.01.24 0700 UTC
Wind: from the N (350 degrees) at 14 MPH (12 KT):0
Visibility: greater than 7 mile(s):0
Sky conditions: partly cloudy
Temperature: 57 F (14 C)
Dew Point: 50 F (10 C)
Relative Humidity: 76%
Pressure (altimeter): 30.33 in. Hg (1027 hPa)
ob: DTTJ 240700Z 35012KT 9999 SCT026 14/10 Q1027 NOSIG
cycle: 7

Station Type Date Time Source
DTTJ TAF 2018/01/24 06:39 UTC NOAA

TAF DTTJ 240530Z 2406/2506 35012KT 8000 FEW026 PROB30
TEMPO 2502/2506 3000 BR FEW015


Example: see airport list